createdAt,value
2023-04-14T00:01:16.686Z,100082.50
2023-04-14T00:03:43.294Z,100081.00
2023-04-14T00:06:09.690Z,100072.19
2023-04-14T00:08:36.046Z,100072.84
2023-04-14T00:11:02.192Z,100066.63
2023-04-14T00:13:28.685Z,100059.34
2023-04-14T00:15:55.484Z,100062.72
2023-04-14T00:18:21.943Z,100062.38
2023-04-14T00:20:48.056Z,100069.16
2023-04-14T00:23:14.740Z,100064.25
2023-04-14T00:25:40.900Z,100055.13
2023-04-14T00:28:07.258Z,100047.88
2023-04-14T00:30:33.330Z,100057.69
2023-04-14T00:32:59.849Z,100052.78
2023-04-14T00:35:26.156Z,100056.31
2023-04-14T00:37:52.641Z,100054.09
2023-04-14T00:40:18.708Z,100055.13
2023-04-14T00:42:46.250Z,100059.88
2023-04-14T00:45:14.205Z,100059.03
2023-04-14T00:47:46.021Z,100060.03
2023-04-14T00:50:17.600Z,100060.69
2023-04-14T00:52:47.182Z,100054.78
2023-04-14T00:55:19.162Z,100053.25
2023-04-14T00:57:46.009Z,100046.63
2023-04-14T01:00:13.153Z,100050.03
2023-04-14T01:02:41.925Z,100057.78
2023-04-14T01:05:08.373Z,100054.25
2023-04-14T01:07:36.333Z,100048.34
2023-04-14T01:10:03.591Z,100056.47
2023-04-14T01:12:56.912Z,100057.66
2023-04-14T01:15:38.036Z,100064.25
2023-04-14T01:18:20.732Z,100067.59
2023-04-14T01:20:55.908Z,100058.84
2023-04-14T01:23:26.535Z,100063.22
2023-04-14T01:26:20.880Z,100063.56
2023-04-14T01:29:12.384Z,100062.22
2023-04-14T01:32:04.746Z,100053.59
2023-04-14T01:34:51.651Z,100061.03
2023-04-14T01:37:25.396Z,100058.84
2023-04-14T01:39:54.734Z,100060.34
2023-04-14T01:42:25.938Z,100051.06
2023-04-14T01:44:56.542Z,100047.66
2023-04-14T01:47:25.232Z,100044.09
2023-04-14T01:49:54.978Z,100049.03
2023-04-14T01:52:22.184Z,100051.06
2023-04-14T01:54:51.550Z,100052.75
2023-04-14T01:57:22.147Z,100056.81
2023-04-14T01:59:54.274Z,100054.44
2023-04-14T02:02:22.472Z,100058.31
2023-04-14T02:04:51.140Z,100052.75
2023-04-14T02:07:21.089Z,100061.56
2023-04-14T02:09:48.901Z,100059.84
2023-04-14T02:12:17.849Z,100052.44
2023-04-14T02:14:46.773Z,100055.16
2023-04-14T02:17:15.801Z,100048.03
2023-04-14T02:19:45.487Z,100052.09
2023-04-14T02:22:11.903Z,100042.94
2023-04-14T02:24:38.517Z,100048.19
2023-04-14T02:27:18.222Z,100041.44
2023-04-14T02:29:50.391Z,100047.38
2023-04-14T02:32:24.043Z,100050.06
2023-04-14T02:35:12.846Z,100051.09
2023-04-14T02:37:41.867Z,100060.22
2023-04-14T02:40:16.307Z,100057.88
2023-04-14T02:42:47.418Z,100059.56
2023-04-14T02:45:21.728Z,100059.22
2023-04-14T02:47:54.382Z,100063.97
2023-04-14T02:50:21.914Z,100058.22
2023-04-14T02:53:01.442Z,100050.75
2023-04-14T02:55:34.090Z,100053.81
2023-04-14T02:58:00.762Z,100057.03
2023-04-14T03:00:29.751Z,100064.31
2023-04-14T03:02:57.270Z,100062.28
2023-04-14T03:05:24.028Z,100062.28
2023-04-14T03:08:10.124Z,100054.81
2023-04-14T03:10:39.004Z,100052.13
2023-04-14T03:13:07.147Z,100049.75
2023-04-14T03:15:35.507Z,100037.88
2023-04-14T03:18:03.088Z,100031.63
2023-04-14T03:20:31.359Z,100027.91
2023-04-14T03:23:01.159Z,100029.75
2023-04-14T03:25:32.452Z,100025.19
2023-04-14T03:28:01.861Z,100028.56
2023-04-14T03:30:31.616Z,100026.38
2023-04-14T03:33:05.504Z,100023.50
2023-04-14T03:35:33.664Z,100028.06
2023-04-14T03:38:01.700Z,100026.53
2023-04-14T03:40:34.195Z,100024.16
2023-04-14T03:43:02.227Z,100029.91
2023-04-14T03:45:29.066Z,100023.66
2023-04-14T03:48:02.088Z,100019.59
2023-04-14T03:50:36.196Z,100025.19
2023-04-14T03:53:05.682Z,100019.94
2023-04-14T03:55:35.259Z,100016.88
2023-04-14T03:58:02.470Z,100028.72
2023-04-14T04:00:30.400Z,100032.94
2023-04-14T04:02:57.902Z,100034.13
2023-04-14T04:05:24.782Z,100037.53
2023-04-14T04:07:51.794Z,100040.56
2023-04-14T04:10:20.404Z,100037.88
2023-04-14T04:12:48.709Z,100039.75
2023-04-14T04:15:16.298Z,100042.28
2023-04-14T04:17:43.381Z,100042.28
2023-04-14T04:20:14.487Z,100035.69
2023-04-14T04:22:43.920Z,100038.06
2023-04-14T04:25:10.893Z,100033.16
2023-04-14T04:27:40.671Z,100038.56
2023-04-14T04:30:15.687Z,100037.03
2023-04-14T04:32:42.054Z,100041.94
2023-04-14T04:35:11.553Z,100044.31
2023-04-14T04:37:41.549Z,100031.09
2023-04-14T04:40:08.553Z,100044.81
2023-04-14T04:42:40.147Z,100041.78
2023-04-14T04:45:07.836Z,100035.84
2023-04-14T04:47:35.164Z,100040.44
2023-04-14T04:50:01.764Z,100041.44
2023-04-14T04:52:28.145Z,100035.19
2023-04-14T04:54:54.669Z,100043.66
2023-04-14T04:57:20.847Z,100034.50
2023-04-14T04:59:47.515Z,100043.66
2023-04-14T05:02:13.716Z,100031.63
2023-04-14T05:04:40.519Z,100023.50
2023-04-14T05:07:07.100Z,100032.81
2023-04-14T05:09:33.575Z,100028.41
2023-04-14T05:11:59.915Z,100024.50
2023-04-14T05:14:27.574Z,100026.03
2023-04-14T05:16:53.896Z,100028.91
2023-04-14T05:19:20.335Z,100036.88
2023-04-14T05:21:46.538Z,100032.13
2023-04-14T05:24:13.013Z,100032.44
2023-04-14T05:29:08.596Z,100029.72
2023-04-14T05:31:34.835Z,100024.13
2023-04-14T05:34:01.391Z,100022.25
2023-04-14T05:36:27.709Z,100023.97
2023-04-14T05:38:54.132Z,100021.25
2023-04-14T05:41:21.282Z,100024.97
2023-04-14T05:43:47.753Z,100022.94
2023-04-14T05:46:13.876Z,100007.38
2023-04-14T05:48:40.283Z,100015.50
2023-04-14T05:51:06.303Z,100014.81
2023-04-14T05:53:32.652Z,100008.03
2023-04-14T05:55:58.742Z,100013.31
2023-04-14T05:58:25.981Z,100000.59
2023-04-14T06:00:52.340Z,100003.47
2023-04-14T06:03:18.951Z,100002.63
2023-04-14T06:05:47.495Z,99994.31
2023-04-14T06:08:14.336Z,100011.94
2023-04-14T06:10:40.693Z,100009.41
2023-04-14T06:13:07.924Z,99997.88
2023-04-14T06:15:34.300Z,100004.34
2023-04-14T06:18:00.850Z,100000.44
2023-04-14T06:20:27.288Z,100005.69
2023-04-14T06:22:54.202Z,99999.91
2023-04-14T06:25:20.830Z,100008.88
2023-04-14T06:27:47.538Z,100005.84
2023-04-14T06:30:16.476Z,100006.84
2023-04-14T06:32:43.044Z,99998.88
2023-04-14T06:35:16.352Z,99996.66
2023-04-14T06:37:45.712Z,99996.16
2023-04-14T06:40:12.074Z,99996.69
2023-04-14T06:42:38.416Z,100000.59
2023-04-14T06:45:04.801Z,99981.63
2023-04-14T06:47:31.352Z,99981.97
2023-04-14T06:49:58.044Z,99985.53
2023-04-14T06:52:24.515Z,99980.28
2023-04-14T06:54:50.719Z,99980.97
2023-04-14T06:57:17.172Z,99977.56
2023-04-14T06:59:43.291Z,99977.38
2023-04-14T07:02:09.731Z,99975.53
2023-04-14T07:04:37.261Z,99975.50
2023-04-14T07:07:04.134Z,99977.28
2023-04-14T07:09:30.465Z,99971.19
2023-04-14T07:11:57.273Z,99968.28
2023-04-14T07:14:24.153Z,99968.47
2023-04-14T07:16:52.412Z,99966.44
2023-04-14T07:19:19.354Z,99964.03
2023-04-14T07:21:46.802Z,99952.69
2023-04-14T07:24:15.370Z,99954.22
2023-04-14T07:26:43.486Z,99956.41
2023-04-14T07:29:09.928Z,99943.25
2023-04-14T07:31:37.294Z,99944.75
2023-04-14T07:34:03.570Z,99944.63
2023-04-14T07:36:31.135Z,99935.56
2023-04-14T07:38:57.285Z,99931.97
2023-04-14T07:41:24.061Z,99929.22
2023-04-14T07:43:50.176Z,99932.81
2023-04-14T07:46:16.550Z,99929.22
2023-04-14T07:48:42.605Z,99929.03
2023-04-14T07:51:10.741Z,99925.00
2023-04-14T07:53:41.540Z,99936.56
2023-04-14T07:56:08.277Z,99932.47
2023-04-14T07:58:34.603Z,99928.59
2023-04-14T08:01:01.672Z,99937.09
2023-04-14T08:03:27.998Z,99938.03
2023-04-14T08:05:54.960Z,99925.53
2023-04-14T08:08:21.454Z,99929.75
2023-04-14T08:10:47.897Z,99933.66
2023-04-14T08:13:14.089Z,99927.88
2023-04-14T08:15:40.802Z,99932.66
2023-04-14T08:18:07.119Z,99934.66
2023-04-14T08:20:37.436Z,99932.13
2023-04-14T08:23:03.855Z,99929.53
2023-04-14T08:25:30.573Z,99925.97
2023-04-14T08:27:57.147Z,99931.03
2023-04-14T08:30:23.929Z,99929.53
2023-04-14T08:32:50.147Z,99928.50
2023-04-14T08:35:35.576Z,99919.56
2023-04-14T08:38:04.311Z,99922.31
2023-04-14T08:40:37.479Z,99929.88
2023-04-14T08:43:04.912Z,99928.31
2023-04-14T08:45:32.431Z,99934.03
2023-04-14T08:48:00.139Z,99927.41
2023-04-14T08:50:32.490Z,99927.84
2023-04-14T08:53:03.407Z,99930.66
2023-04-14T08:55:32.222Z,99927.47
2023-04-14T08:58:00.372Z,99936.94
2023-04-14T09:00:26.868Z,99932.91
2023-04-14T09:02:53.774Z,99926.50
2023-04-14T09:05:21.046Z,99928.19
2023-04-14T09:07:47.408Z,99932.19
2023-04-14T09:10:14.318Z,99941.97
2023-04-14T09:12:42.051Z,99927.38
2023-04-14T09:15:09.220Z,99934.69
2023-04-14T09:17:36.012Z,99934.44
2023-04-14T09:20:34.767Z,99934.94
2023-04-14T09:22:49.359Z,99933.94
2023-04-14T09:25:18.028Z,99943.09
2023-04-14T09:27:44.844Z,99939.66
2023-04-14T09:30:11.730Z,99933.13
2023-04-14T09:32:38.989Z,99940.97
2023-04-14T09:35:06.280Z,99932.66
2023-04-14T09:37:46.195Z,99935.59
2023-04-14T09:40:30.204Z,99931.44
2023-04-14T09:42:57.054Z,99933.19
2023-04-14T09:45:44.078Z,99928.31
2023-04-14T09:48:12.334Z,99920.19
2023-04-14T09:51:06.204Z,99927.09
2023-04-14T09:53:34.929Z,99925.31
2023-04-14T09:56:05.157Z,99919.97
2023-04-14T09:58:42.533Z,99921.28
2023-04-14T10:01:19.219Z,99927.47
2023-04-14T10:03:47.259Z,99921.00
2023-04-14T10:06:21.510Z,99922.69
2023-04-14T10:08:49.388Z,99915.75
2023-04-14T10:11:17.163Z,99911.00
2023-04-14T10:13:53.417Z,99917.56
2023-04-14T10:16:23.690Z,99919.19
2023-04-14T10:18:51.468Z,99913.09
2023-04-14T10:21:21.320Z,99904.03
2023-04-14T10:23:48.419Z,99903.56
2023-04-14T10:26:15.519Z,99909.28
2023-04-14T10:28:45.326Z,99911.00
2023-04-14T10:31:19.410Z,99902.41
2023-04-14T10:33:45.986Z,99904.81
2023-04-14T10:36:21.964Z,99902.75
2023-04-14T10:38:48.170Z,99901.22
2023-04-14T10:41:14.734Z,99888.94
2023-04-14T10:43:41.028Z,99887.63
2023-04-14T10:46:10.307Z,99894.59
2023-04-14T10:48:40.727Z,99888.81
2023-04-14T10:51:09.788Z,99888.03
2023-04-14T10:53:38.441Z,99890.94
2023-04-14T10:56:05.498Z,99884.44
2023-04-14T10:58:34.514Z,99878.22
2023-04-14T11:01:20.976Z,99880.75
2023-04-14T11:03:47.342Z,99874.44
2023-04-14T11:06:13.802Z,99885.84
2023-04-14T11:08:49.488Z,99874.47
2023-04-14T11:11:16.183Z,99884.59
2023-04-14T11:13:42.366Z,99882.88
2023-04-14T11:16:10.185Z,99879.53
2023-04-14T11:18:43.344Z,99885.00
2023-04-14T11:21:17.567Z,99882.28
2023-04-14T11:23:44.277Z,99875.31
2023-04-14T11:26:12.752Z,99867.53
2023-04-14T11:28:41.861Z,99870.06
2023-04-14T11:31:11.538Z,99860.59
2023-04-14T11:33:40.431Z,99862.72
2023-04-14T11:36:09.064Z,99852.59
2023-04-14T11:38:39.691Z,99864.38
2023-04-14T11:41:07.126Z,99855.97
2023-04-14T11:43:33.822Z,99849.03
2023-04-14T11:46:01.418Z,99846.50
2023-04-14T11:48:30.146Z,99844.59
2023-04-14T11:51:02.482Z,99845.81
2023-04-14T11:53:28.840Z,99837.78
2023-04-14T11:55:56.791Z,99841.09
2023-04-14T11:58:27.006Z,99833.75
2023-04-14T12:00:56.772Z,99841.47
2023-04-14T12:03:28.229Z,99834.78
2023-04-14T12:05:59.134Z,99833.28
2023-04-14T12:08:25.302Z,99836.16
2023-04-14T12:10:53.250Z,99828.47
2023-04-14T12:13:19.758Z,99832.38
2023-04-14T12:15:46.967Z,99834.34
2023-04-14T12:18:15.058Z,99834.25
2023-04-14T12:20:53.100Z,99825.91
2023-04-14T12:23:19.919Z,99821.66
2023-04-14T12:25:50.738Z,99804.28
2023-04-14T12:28:18.008Z,99807.78
2023-04-14T12:30:52.423Z,99802.44
2023-04-14T12:33:22.967Z,99804.31
2023-04-14T12:35:50.579Z,99801.47
2023-04-14T12:38:17.479Z,99801.41
2023-04-14T12:40:46.985Z,99793.13
2023-04-14T12:43:15.459Z,99783.53
2023-04-14T12:45:50.803Z,99781.31
2023-04-14T12:48:17.710Z,99783.97
2023-04-14T12:50:44.517Z,99785.41
2023-04-14T12:53:27.994Z,99777.13
2023-04-14T12:56:09.802Z,99770.41
2023-04-14T12:58:38.036Z,99767.66
2023-04-14T13:01:06.989Z,99761.00
2023-04-14T13:03:40.470Z,99766.97
2023-04-14T13:06:07.684Z,99767.97
2023-04-14T13:08:33.904Z,99757.88
2023-04-14T13:11:00.759Z,99767.06
2023-04-14T13:13:27.136Z,99773.53
2023-04-14T13:16:13.585Z,99773.56
2023-04-14T13:18:39.910Z,99755.09
2023-04-14T13:21:06.591Z,99759.78
2023-04-14T13:23:33.292Z,99752.06
2023-04-14T13:26:00.133Z,99757.78
2023-04-14T13:28:26.794Z,99747.25
2023-04-14T13:30:57.454Z,99755.88
2023-04-14T13:33:24.831Z,99749.31
2023-04-14T13:35:52.358Z,99744.84
2023-04-14T13:38:18.477Z,99744.22
2023-04-14T13:40:47.540Z,99743.94
2023-04-14T13:43:17.344Z,99737.97
2023-04-14T13:45:44.368Z,99737.63
2023-04-14T13:48:10.610Z,99732.91
2023-04-14T13:50:37.303Z,99733.63
2023-04-14T13:53:03.628Z,99721.38
2023-04-14T13:55:30.085Z,99720.47
2023-04-14T13:57:56.283Z,99718.41
2023-04-14T14:00:22.785Z,99712.16
2023-04-14T14:02:49.308Z,99719.03
2023-04-14T14:05:16.156Z,99726.44
2023-04-14T14:07:42.472Z,99725.34
2023-04-14T14:10:10.096Z,99723.97
2023-04-14T14:12:36.949Z,99731.66
2023-04-14T14:15:04.838Z,99732.19
2023-04-14T14:17:31.342Z,99730.97
2023-04-14T14:19:58.300Z,99724.69
2023-04-14T14:22:24.818Z,99716.06
2023-04-14T14:24:51.428Z,99720.16
2023-04-14T14:27:17.499Z,99712.16
2023-04-14T14:29:43.997Z,99727.31
2023-04-14T14:32:10.247Z,99720.16
2023-04-14T14:34:38.306Z,99722.06
2023-04-14T14:37:05.012Z,99714.53
2023-04-14T14:39:31.975Z,99714.44
2023-04-14T14:41:58.733Z,99710.31
2023-04-14T14:44:25.273Z,99715.13
2023-04-14T14:46:52.318Z,99713.91
2023-04-14T14:49:20.450Z,99713.31
2023-04-14T14:51:46.754Z,99707.84
2023-04-14T14:54:13.671Z,99709.78
2023-04-14T14:56:40.153Z,99719.97
2023-04-14T14:59:07.775Z,99724.06
2023-04-14T15:01:34.052Z,99718.75
2023-04-14T15:04:00.786Z,99718.53
2023-04-14T15:06:27.240Z,99714.34
2023-04-14T15:08:53.649Z,99722.41
2023-04-14T15:11:20.584Z,99708.84
2023-04-14T15:13:47.193Z,99710.50
2023-04-14T15:16:13.459Z,99708.81
2023-04-14T15:18:42.300Z,99708.81
2023-04-14T15:21:08.500Z,99710.81
2023-04-14T15:23:38.755Z,99713.06
2023-04-14T15:26:05.156Z,99712.28
2023-04-14T15:28:31.711Z,99715.59
2023-04-14T15:30:57.875Z,99717.50
2023-04-14T15:33:24.617Z,99720.19
2023-04-14T15:35:50.931Z,99723.75
2023-04-14T15:38:17.376Z,99717.88
2023-04-14T15:40:43.632Z,99723.41
2023-04-14T15:43:10.883Z,99729.50
2023-04-14T15:45:37.393Z,99726.09
2023-04-14T15:48:04.073Z,99730.00
2023-04-14T15:50:30.401Z,99739.16
2023-04-14T15:52:57.172Z,99733.91
2023-04-14T15:55:23.485Z,99731.00
2023-04-14T15:57:51.011Z,99733.09
2023-04-14T16:00:18.240Z,99735.84
2023-04-14T16:14:32.956Z,99743.00
2023-04-14T16:16:59.708Z,99742.38
2023-04-14T16:19:25.930Z,99743.09
2023-04-14T16:21:54.144Z,99738.16
2023-04-14T16:24:20.384Z,99740.91
2023-04-14T16:26:47.575Z,99745.63
2023-04-14T16:29:13.705Z,99747.75
2023-04-14T16:31:40.481Z,99737.84
2023-04-14T16:34:06.868Z,99742.72
2023-04-14T16:36:33.511Z,99746.53
2023-04-14T16:39:00.665Z,99751.19
2023-04-14T16:41:28.127Z,99749.09
2023-04-14T16:43:54.329Z,99746.59
2023-04-14T16:46:20.902Z,99745.13
2023-04-14T16:48:48.810Z,99753.34
2023-04-14T16:51:15.395Z,99754.19
2023-04-14T16:53:43.429Z,99746.19
2023-04-14T16:56:11.029Z,99751.66
2023-04-14T16:58:38.228Z,99751.25
2023-04-14T17:01:06.912Z,99753.34
2023-04-14T17:03:34.204Z,99752.94
2023-04-14T17:06:00.902Z,99758.63
2023-04-14T17:08:27.466Z,99751.69
2023-04-14T17:10:53.972Z,99760.72
2023-04-14T17:13:20.708Z,99760.31
2023-04-14T17:15:55.627Z,99768.31
2023-04-14T17:18:23.507Z,99759.47
2023-04-14T17:20:50.028Z,99760.09
2023-04-14T17:23:16.675Z,99759.88
2023-04-14T17:25:44.429Z,99771.88
2023-04-14T17:28:10.859Z,99767.03
2023-04-14T17:30:38.065Z,99771.25
2023-04-14T17:33:07.026Z,99774.81
2023-04-14T17:35:34.245Z,99776.28
2023-04-14T17:38:02.817Z,99768.06
2023-04-14T17:40:30.342Z,99776.91
2023-04-14T17:42:57.051Z,99789.28
2023-04-14T17:45:23.674Z,99775.41
2023-04-14T17:47:51.594Z,99776.03
2023-04-14T17:50:22.298Z,99783.59
2023-04-14T17:52:50.330Z,99781.06
2023-04-14T17:55:17.545Z,99781.91
2023-04-14T17:57:47.422Z,99777.91
2023-04-14T18:00:14.202Z,99781.06
2023-04-14T18:02:40.686Z,99779.16
2023-04-14T18:05:08.756Z,99780.00
2023-04-14T18:07:35.956Z,99778.97
2023-04-14T18:10:02.840Z,99777.66
2023-04-14T18:12:30.147Z,99777.28
2023-04-14T18:14:56.862Z,99782.28
2023-04-14T18:17:24.210Z,99766.72
2023-04-14T18:19:51.053Z,99785.19
2023-04-14T18:22:17.696Z,99775.75
2023-04-14T18:29:43.593Z,99779.25
2023-04-14T18:32:09.800Z,99778.44
2023-04-14T18:34:36.594Z,99782.59
2023-04-14T18:37:03.789Z,99784.28
2023-04-14T18:39:32.918Z,99787.69
2023-04-14T18:42:00.254Z,99793.09
2023-04-14T18:44:27.338Z,99792.47
2023-04-14T18:46:54.459Z,99792.66
2023-04-14T18:49:21.604Z,99786.56
2023-04-14T18:51:48.183Z,99788.03
2023-04-14T18:54:14.825Z,99790.56
2023-04-14T18:56:41.236Z,99782.59
2023-04-14T18:59:08.535Z,99786.97
2023-04-14T19:01:36.008Z,99787.41
2023-04-14T19:04:03.273Z,99798.09
2023-04-14T19:06:29.861Z,99796.63
2023-04-14T19:08:56.776Z,99796.00
2023-04-14T19:11:23.388Z,99800.16
2023-04-14T19:13:50.066Z,99801.00
2023-04-14T19:16:16.567Z,99801.84
2023-04-14T19:18:46.239Z,99805.19
2023-04-14T19:21:20.109Z,99806.44
2023-04-14T19:23:46.873Z,99801.97
2023-04-14T19:26:13.380Z,99801.78
2023-04-14T19:28:41.767Z,99796.97
2023-04-14T19:31:08.105Z,99795.25
2023-04-14T19:33:35.274Z,99800.69
2023-04-14T19:36:02.077Z,99804.44
2023-04-14T19:38:28.783Z,99797.09
2023-04-14T19:40:56.220Z,99796.06
2023-04-14T19:43:23.438Z,99796.94
2023-04-14T19:45:51.086Z,99802.75
2023-04-14T19:48:23.902Z,99793.72
2023-04-14T19:50:54.677Z,99801.06
2023-04-14T19:53:23.642Z,99794.56
2023-04-14T19:55:52.779Z,99802.72
2023-04-14T19:58:21.420Z,99809.66
2023-04-14T20:00:50.301Z,99797.84
2023-04-14T20:03:18.581Z,99801.88
2023-04-14T20:05:49.904Z,99788.78
2023-04-14T20:08:17.796Z,99794.84
2023-04-14T20:10:44.094Z,99798.59
2023-04-14T20:13:10.600Z,99795.09
2023-04-14T20:15:37.109Z,99798.56
2023-04-14T20:18:04.038Z,99796.03
2023-04-14T20:20:30.314Z,99808.41
2023-04-14T20:22:58.032Z,99797.25
2023-04-14T20:25:24.731Z,99800.38
2023-04-14T20:27:51.488Z,99800.19
2023-04-14T20:30:17.871Z,99797.00
2023-04-14T20:32:44.790Z,99799.19
2023-04-14T20:35:11.167Z,99807.19
2023-04-14T20:37:37.719Z,99806.88
2023-04-14T20:40:04.695Z,99793.44
2023-04-14T20:42:31.376Z,99802.22
2023-04-14T20:44:57.850Z,99801.94
2023-04-14T20:47:24.792Z,99800.66
2023-04-14T20:49:51.124Z,99808.75
2023-04-14T20:52:25.695Z,99805.19
2023-04-14T20:54:52.095Z,99807.66
2023-04-14T20:57:18.785Z,99810.97
2023-04-14T20:59:45.051Z,99804.47
2023-04-14T21:02:12.087Z,99801.13
2023-04-14T21:04:38.557Z,99814.28
2023-04-14T21:07:05.801Z,99802.53
2023-04-14T21:09:32.304Z,99809.22
2023-04-14T21:12:14.801Z,99806.50
2023-04-14T21:15:29.553Z,99810.63
2023-04-14T21:17:30.550Z,99816.28
2023-04-14T21:19:56.963Z,99819.19
2023-04-14T21:22:23.624Z,99810.91
2023-04-14T21:24:51.171Z,99815.63
2023-04-14T21:27:18.971Z,99815.44
2023-04-14T21:29:45.118Z,99825.66
2023-04-14T21:32:11.753Z,99814.84
2023-04-14T21:34:37.920Z,99819.19
2023-04-14T21:37:04.595Z,99814.41
2023-04-14T21:39:32.341Z,99816.47
2023-04-14T21:41:59.664Z,99814.78
2023-04-14T21:44:26.474Z,99813.03
2023-04-14T21:46:54.169Z,99809.19
2023-04-14T21:49:20.598Z,99812.56
2023-04-14T21:51:49.389Z,99804.41
2023-04-14T21:54:15.586Z,99810.41
2023-04-14T21:56:42.240Z,99805.94
2023-04-14T21:59:08.441Z,99806.34
2023-04-14T22:01:35.603Z,99802.91
2023-04-14T22:04:02.419Z,99805.81
2023-04-14T22:06:28.916Z,99818.94
2023-04-14T22:08:55.459Z,99822.88
2023-04-14T22:11:22.460Z,99817.84
2023-04-14T22:13:48.815Z,99818.13
2023-04-14T22:16:19.194Z,99810.88
2023-04-14T22:18:45.710Z,99810.22
2023-04-14T22:21:14.061Z,99809.38
2023-04-14T22:23:42.990Z,99812.09
2023-04-14T22:26:09.985Z,99818.09
2023-04-14T22:28:36.494Z,99815.94
2023-04-14T22:31:03.550Z,99808.16
2023-04-14T22:33:29.780Z,99819.69
2023-04-14T22:35:56.384Z,99822.41
2023-04-14T22:38:22.537Z,99819.22
2023-04-14T22:40:51.030Z,99833.66
2023-04-14T22:43:18.495Z,99834.03
2023-04-14T22:45:45.049Z,99837.13
2023-04-14T22:48:11.264Z,99828.50
2023-04-14T22:50:38.213Z,99824.00
2023-04-14T22:53:05.070Z,99828.22
2023-04-14T22:55:32.132Z,99834.31
2023-04-14T22:57:58.393Z,99822.50
2023-04-14T23:00:24.777Z,99828.97
2023-04-14T23:02:51.667Z,99830.81
2023-04-14T23:05:18.263Z,99832.69
2023-04-14T23:07:44.965Z,99824.72
2023-04-14T23:10:11.388Z,99817.97
2023-04-14T23:12:40.402Z,99820.34
2023-04-14T23:15:07.454Z,99822.75
2023-04-14T23:17:33.897Z,99820.69
2023-04-14T23:20:01.314Z,99819.38
2023-04-14T23:22:27.690Z,99825.00
2023-04-14T23:24:54.062Z,99822.09
2023-04-14T23:27:20.578Z,99817.31
2023-04-14T23:29:47.314Z,99819.13
2023-04-14T23:32:14.044Z,99818.84
2023-04-14T23:34:41.004Z,99809.94
2023-04-14T23:37:07.665Z,99811.63
2023-04-14T23:39:34.021Z,99818.09
2023-04-14T23:42:00.217Z,99814.91
2023-04-14T23:44:26.716Z,99817.88
2023-04-14T23:46:52.847Z,99809.19
2023-04-14T23:49:23.626Z,99816.47
2023-04-14T23:51:50.907Z,99812.75
2023-04-14T23:54:17.295Z,99816.66
2023-04-14T23:56:43.385Z,99812.44
2023-04-14T23:59:09.817Z,99808.88
